createdAt,value
2023-03-29T00:01:35.699Z,2.49
2023-03-29T00:03:17.891Z,3.15
2023-03-29T00:04:59.273Z,3.55
2023-03-29T00:06:40.580Z,3.96
2023-03-29T00:08:21.895Z,4.00
2023-03-29T00:10:03.193Z,3.24
2023-03-29T00:11:44.492Z,3.09
2023-03-29T00:13:25.776Z,2.86
2023-03-29T00:15:07.056Z,2.38
2023-03-29T00:16:48.393Z,1.99
2023-03-29T00:18:29.732Z,2.38
2023-03-29T00:20:11.010Z,2.62
2023-03-29T00:21:52.319Z,2.22
2023-03-29T00:23:33.613Z,2.63
2023-03-29T00:25:14.914Z,2.72
2023-03-29T00:26:56.218Z,2.29
2023-03-29T00:28:37.524Z,2.52
2023-03-29T00:30:18.810Z,3.08
2023-03-29T00:32:00.126Z,3.24
2023-03-29T00:33:41.471Z,3.20
2023-03-29T00:35:22.873Z,3.10
2023-03-29T00:37:04.182Z,2.94
2023-03-29T00:38:45.554Z,2.80
2023-03-29T00:40:26.876Z,2.57
2023-03-29T00:42:08.146Z,2.75
2023-03-29T00:43:49.491Z,2.40
2023-03-29T00:45:30.788Z,2.56
2023-03-29T00:47:12.080Z,2.48
2023-03-29T00:48:53.426Z,2.16
2023-03-29T00:50:34.703Z,2.77
2023-03-29T00:52:15.977Z,3.33
2023-03-29T00:53:57.301Z,3.22
2023-03-29T00:55:38.628Z,3.17
2023-03-29T00:57:19.972Z,3.33
2023-03-29T00:59:01.286Z,3.31
2023-03-29T01:00:42.591Z,3.70
2023-03-29T01:02:23.944Z,3.75
2023-03-29T01:04:05.357Z,3.25
2023-03-29T01:05:46.773Z,3.15
2023-03-29T01:07:28.106Z,2.99
2023-03-29T01:09:09.449Z,3.22
2023-03-29T01:10:50.761Z,3.59
2023-03-29T01:12:32.102Z,3.54
2023-03-29T01:14:13.393Z,4.01
2023-03-29T01:15:54.726Z,4.28
2023-03-29T01:17:36.132Z,3.99
2023-03-29T01:19:17.414Z,4.34
2023-03-29T01:20:58.706Z,4.44
2023-03-29T01:22:39.984Z,3.89
2023-03-29T01:24:21.297Z,3.87
2023-03-29T01:26:02.641Z,4.41
2023-03-29T01:27:43.938Z,4.67
2023-03-29T01:29:25.291Z,4.72
2023-03-29T01:31:06.629Z,4.95
2023-03-29T01:32:47.994Z,4.34
2023-03-29T01:34:29.321Z,4.72
2023-03-29T01:36:10.774Z,4.98
2023-03-29T01:37:52.150Z,4.52
2023-03-29T01:39:33.440Z,4.10
2023-03-29T01:41:14.751Z,3.58
2023-03-29T01:42:56.038Z,2.69
2023-03-29T01:44:37.333Z,2.35
2023-03-29T01:46:18.720Z,2.72
2023-03-29T01:48:00.106Z,2.72
2023-03-29T01:49:41.453Z,2.70
2023-03-29T01:51:22.758Z,2.64
2023-03-29T01:53:04.081Z,2.50
2023-03-29T01:54:45.396Z,2.97
2023-03-29T01:56:26.714Z,3.08
2023-03-29T01:58:07.994Z,3.47
2023-03-29T01:59:49.280Z,3.85
2023-03-29T02:01:30.637Z,4.04
2023-03-29T02:03:12.014Z,4.20
2023-03-29T02:04:53.354Z,4.42
2023-03-29T02:06:34.686Z,4.20
2023-03-29T02:08:15.977Z,4.10
2023-03-29T02:09:57.245Z,4.33
2023-03-29T02:11:38.574Z,4.36
2023-03-29T02:13:19.865Z,4.14
2023-03-29T02:15:01.216Z,4.26
2023-03-29T02:16:42.541Z,4.43
2023-03-29T02:18:23.830Z,4.53
2023-03-29T02:20:05.111Z,4.51
2023-03-29T02:21:46.412Z,4.63
2023-03-29T02:23:27.708Z,4.64
2023-03-29T02:25:09.026Z,3.45
2023-03-29T02:26:50.351Z,3.49
2023-03-29T02:28:31.696Z,3.58
2023-03-29T02:30:13.082Z,3.03
2023-03-29T02:31:54.356Z,3.28
2023-03-29T02:33:35.651Z,3.26
2023-03-29T02:35:16.938Z,2.79
2023-03-29T02:36:58.249Z,2.59
2023-03-29T02:38:39.517Z,2.56
2023-03-29T02:40:20.857Z,2.96
2023-03-29T02:42:02.203Z,3.15
2023-03-29T02:43:43.480Z,2.10
2023-03-29T02:45:24.728Z,2.23
2023-03-29T02:47:06.079Z,2.94
2023-03-29T02:48:47.411Z,2.64
2023-03-29T02:50:28.718Z,2.23
2023-03-29T02:52:10.002Z,2.38
2023-03-29T02:53:51.278Z,2.12
2023-03-29T02:55:32.558Z,2.48
2023-03-29T02:57:13.901Z,2.91
2023-03-29T02:58:55.293Z,3.41
2023-03-29T03:00:36.810Z,3.69
2023-03-29T03:02:18.131Z,3.61
2023-03-29T03:03:59.492Z,3.58
2023-03-29T03:05:40.801Z,3.65
2023-03-29T03:07:22.122Z,3.72
2023-03-29T03:09:03.465Z,3.10
2023-03-29T03:10:44.743Z,2.52
2023-03-29T03:12:26.021Z,2.10
2023-03-29T03:14:07.326Z,1.97
2023-03-29T03:15:48.585Z,2.44
2023-03-29T03:17:29.935Z,2.94
2023-03-29T03:19:11.271Z,3.26
2023-03-29T03:20:52.549Z,3.59
2023-03-29T03:22:33.882Z,3.67
2023-03-29T03:24:15.203Z,3.24
2023-03-29T03:25:56.518Z,3.79
2023-03-29T03:27:37.792Z,3.85
2023-03-29T03:29:19.087Z,4.28
2023-03-29T03:31:00.580Z,4.51
2023-03-29T03:32:42.104Z,4.23
2023-03-29T03:34:23.438Z,3.97
2023-03-29T03:36:04.755Z,4.23
2023-03-29T03:37:46.102Z,4.20
2023-03-29T03:39:27.370Z,4.18
2023-03-29T03:41:08.643Z,4.32
2023-03-29T03:42:49.929Z,4.20
2023-03-29T03:44:31.240Z,4.24
2023-03-29T03:46:12.562Z,3.36
2023-03-29T03:47:53.922Z,2.71
2023-03-29T03:49:35.199Z,2.70
2023-03-29T03:51:16.477Z,2.61
2023-03-29T03:52:57.825Z,2.86
2023-03-29T03:54:39.095Z,3.21
2023-03-29T03:56:20.406Z,3.24
2023-03-29T03:58:01.737Z,3.37
2023-03-29T03:59:42.995Z,3.73
2023-03-29T04:01:24.268Z,4.17
2023-03-29T04:03:05.745Z,4.33
2023-03-29T04:04:47.213Z,4.36
2023-03-29T04:06:28.475Z,4.51
2023-03-29T04:08:09.764Z,4.28
2023-03-29T04:09:51.053Z,4.60
2023-03-29T04:11:32.334Z,4.62
2023-03-29T04:13:13.640Z,4.97
2023-03-29T04:14:54.934Z,5.17
2023-03-29T04:16:36.206Z,4.60
2023-03-29T04:18:17.575Z,4.52
2023-03-29T04:19:58.938Z,4.40
2023-03-29T04:21:40.256Z,4.30
2023-03-29T04:23:21.566Z,3.70
2023-03-29T04:25:02.861Z,3.55
2023-03-29T04:26:44.134Z,3.59
2023-03-29T04:28:25.414Z,3.57
2023-03-29T04:30:06.736Z,3.35
2023-03-29T04:31:48.081Z,3.28
2023-03-29T04:33:29.390Z,3.71
2023-03-29T04:35:10.698Z,3.99
2023-03-29T04:36:51.984Z,4.27
2023-03-29T04:38:33.289Z,4.19
2023-03-29T04:40:14.570Z,4.33
2023-03-29T04:41:55.866Z,4.21
2023-03-29T04:43:39.639Z,4.54
2023-03-29T04:45:21.499Z,4.88
2023-03-29T04:47:03.004Z,3.60
2023-03-29T04:48:44.312Z,3.26
2023-03-29T04:50:25.587Z,3.33
2023-03-29T04:52:06.861Z,3.90
2023-03-29T04:53:48.155Z,4.29
2023-03-29T04:55:29.480Z,4.34
2023-03-29T04:57:10.808Z,4.62
2023-03-29T04:58:52.101Z,4.43
2023-03-29T05:00:33.407Z,3.79
2023-03-29T05:02:14.789Z,3.38
2023-03-29T05:03:56.159Z,3.44
2023-03-29T05:05:37.501Z,3.48
2023-03-29T05:07:18.777Z,4.04
2023-03-29T05:09:00.037Z,4.30
2023-03-29T05:10:41.358Z,4.11
2023-03-29T05:12:22.638Z,4.38
2023-03-29T05:14:03.949Z,4.58
2023-03-29T05:15:45.248Z,3.32
2023-03-29T05:17:26.606Z,3.03
2023-03-29T05:19:07.952Z,3.44
2023-03-29T05:20:49.272Z,3.87
2023-03-29T05:22:30.565Z,3.55
2023-03-29T05:24:11.826Z,2.98
2023-03-29T05:25:53.093Z,2.64
2023-03-29T05:27:34.381Z,2.59
2023-03-29T05:29:15.668Z,2.59
2023-03-29T05:30:56.961Z,2.70
2023-03-29T05:32:38.328Z,2.84
2023-03-29T05:34:20.046Z,3.26
2023-03-29T05:36:02.045Z,3.66
2023-03-29T05:37:43.417Z,4.11
2023-03-29T05:39:24.729Z,4.06
2023-03-29T05:41:06.048Z,4.14
2023-03-29T05:42:47.394Z,4.32
2023-03-29T05:44:28.708Z,4.39
2023-03-29T05:46:10.060Z,4.57
2023-03-29T05:47:51.417Z,3.93
2023-03-29T05:49:32.764Z,3.29
2023-03-29T05:51:14.084Z,3.22
2023-03-29T05:52:55.379Z,3.57
2023-03-29T05:54:36.705Z,4.06
2023-03-29T05:56:18.017Z,3.89
2023-03-29T05:57:59.321Z,3.73
2023-03-29T05:59:40.663Z,4.02
2023-03-29T06:01:21.953Z,4.44
2023-03-29T06:03:13.638Z,4.57
2023-03-29T06:04:59.177Z,4.85
2023-03-29T06:06:40.517Z,5.12
2023-03-29T06:08:21.854Z,5.32
2023-03-29T06:10:03.205Z,5.28
2023-03-29T06:11:44.527Z,5.51
2023-03-29T06:13:25.804Z,5.36
2023-03-29T06:15:07.134Z,5.32
2023-03-29T06:16:48.478Z,4.60
2023-03-29T06:18:29.791Z,4.47
2023-03-29T06:20:12.021Z,4.96
2023-03-29T06:21:53.378Z,5.14
2023-03-29T06:23:34.782Z,5.34
2023-03-29T06:25:16.289Z,5.76
2023-03-29T06:26:57.570Z,5.88
2023-03-29T06:28:38.884Z,5.51
2023-03-29T06:30:20.208Z,4.91
2023-03-29T06:32:01.536Z,5.33
2023-03-29T06:33:42.872Z,5.63
2023-03-29T06:35:24.170Z,6.07
2023-03-29T06:37:05.534Z,5.83
2023-03-29T06:38:46.868Z,4.86
2023-03-29T06:40:28.171Z,4.52
2023-03-29T06:42:20.035Z,4.67
2023-03-29T06:44:02.231Z,5.20
2023-03-29T06:45:43.496Z,5.63
2023-03-29T06:47:24.815Z,5.83
2023-03-29T06:49:06.137Z,5.94
2023-03-29T06:50:47.406Z,6.16
2023-03-29T06:52:28.717Z,6.00
2023-03-29T06:54:10.027Z,5.68
2023-03-29T06:55:51.350Z,5.47
2023-03-29T06:57:32.680Z,5.32
2023-03-29T06:59:14.031Z,5.48
2023-03-29T07:00:55.333Z,5.19
2023-03-29T07:02:36.714Z,5.44
2023-03-29T07:04:18.309Z,5.52
2023-03-29T07:05:59.700Z,5.58
2023-03-29T07:07:41.064Z,5.79
2023-03-29T07:09:22.371Z,6.00
2023-03-29T07:11:03.998Z,6.13
2023-03-29T07:12:45.579Z,6.51
2023-03-29T07:14:26.885Z,6.86
2023-03-29T07:16:08.256Z,6.37
2023-03-29T07:17:49.635Z,6.23
2023-03-29T07:19:31.057Z,6.54
2023-03-29T07:21:12.403Z,6.76
2023-03-29T07:22:53.909Z,6.89
2023-03-29T07:24:35.171Z,6.95
2023-03-29T07:26:28.572Z,6.94
2023-03-29T07:28:10.711Z,7.15
2023-03-29T07:29:51.987Z,7.11
2023-03-29T07:31:33.290Z,7.06
2023-03-29T07:33:14.716Z,7.35
2023-03-29T07:34:56.132Z,7.47
2023-03-29T07:36:37.430Z,7.57
2023-03-29T07:38:18.775Z,7.86
2023-03-29T07:40:00.117Z,7.88
2023-03-29T07:41:41.460Z,7.60
2023-03-29T07:43:22.740Z,7.82
2023-03-29T07:45:04.136Z,8.05
2023-03-29T07:46:45.576Z,8.15
2023-03-29T07:48:26.863Z,8.06
2023-03-29T07:50:08.286Z,7.20
2023-03-29T07:51:49.617Z,7.51
2023-03-29T07:53:30.913Z,7.80
2023-03-29T07:55:12.261Z,8.04
2023-03-29T07:56:53.598Z,8.08
2023-03-29T07:58:34.904Z,8.16
2023-03-29T08:00:16.728Z,8.08
2023-03-29T08:01:58.368Z,7.91
2023-03-29T08:03:39.700Z,7.86
2023-03-29T08:05:29.126Z,7.16
2023-03-29T08:07:17.040Z,7.65
2023-03-29T08:09:00.127Z,8.01
2023-03-29T08:10:41.662Z,8.03
2023-03-29T08:12:24.972Z,8.22
2023-03-29T08:14:06.386Z,8.22
2023-03-29T08:15:47.661Z,8.51
2023-03-29T08:17:29.123Z,8.59
2023-03-29T08:19:10.427Z,8.80
2023-03-29T08:20:51.719Z,8.27
2023-03-29T08:22:33.057Z,7.84
2023-03-29T08:24:14.392Z,8.23
2023-03-29T08:25:55.673Z,8.66
2023-03-29T08:27:37.084Z,8.81
2023-03-29T08:29:18.405Z,9.03
2023-03-29T08:30:59.961Z,9.23
2023-03-29T08:32:41.588Z,9.14
2023-03-29T08:34:22.906Z,9.21
2023-03-29T08:36:04.248Z,9.04
2023-03-29T08:37:45.593Z,8.89
2023-03-29T08:39:26.892Z,8.10
2023-03-29T08:41:08.164Z,7.44
2023-03-29T08:42:49.459Z,7.18
2023-03-29T08:44:30.755Z,7.81
2023-03-29T08:46:12.097Z,8.22
2023-03-29T08:47:53.583Z,7.60
2023-03-29T08:49:34.973Z,7.67
2023-03-29T08:51:16.265Z,7.87
2023-03-29T08:52:57.573Z,8.18
2023-03-29T08:54:38.935Z,7.91
2023-03-29T08:56:20.254Z,8.03
2023-03-29T08:58:01.521Z,8.55
2023-03-29T08:59:42.829Z,8.84
2023-03-29T09:01:24.141Z,9.21
2023-03-29T09:03:05.487Z,9.26
2023-03-29T09:04:46.819Z,9.63
2023-03-29T09:06:28.205Z,9.99
2023-03-29T09:08:09.541Z,9.76
2023-03-29T09:09:50.904Z,10.22
2023-03-29T09:11:32.193Z,10.12
2023-03-29T09:13:13.513Z,10.15
2023-03-29T09:14:54.865Z,10.23
2023-03-29T09:16:36.259Z,10.11
2023-03-29T09:18:17.600Z,9.80
2023-03-29T09:19:58.967Z,9.82
2023-03-29T09:21:40.278Z,10.00
2023-03-29T09:23:21.550Z,9.90
2023-03-29T09:25:02.874Z,10.07
2023-03-29T09:26:44.185Z,10.28
2023-03-29T09:28:25.485Z,10.18
2023-03-29T09:30:06.811Z,10.23
2023-03-29T09:31:48.185Z,10.43
2023-03-29T09:33:29.482Z,10.58
2023-03-29T09:35:10.780Z,10.20
2023-03-29T09:36:52.065Z,10.07
2023-03-29T09:38:33.377Z,9.79
2023-03-29T09:40:14.671Z,10.02
2023-03-29T09:41:55.982Z,9.72
2023-03-29T09:43:37.293Z,9.41
2023-03-29T09:45:18.600Z,8.85
2023-03-29T09:46:59.878Z,8.96
2023-03-29T09:48:41.199Z,8.21
2023-03-29T09:50:31.032Z,7.32
2023-03-29T09:52:13.415Z,7.31
2023-03-29T09:53:54.765Z,7.16
2023-03-29T09:55:36.081Z,7.10
2023-03-29T09:57:17.615Z,7.52
2023-03-29T09:58:58.945Z,8.15
2023-03-29T10:00:40.400Z,8.61
2023-03-29T10:02:21.731Z,8.91
2023-03-29T10:04:03.154Z,9.19
2023-03-29T10:05:44.499Z,9.17
2023-03-29T10:07:25.801Z,8.72
2023-03-29T10:09:07.095Z,8.46
2023-03-29T10:10:48.415Z,8.51
2023-03-29T10:12:29.692Z,8.49
2023-03-29T10:14:11.008Z,8.22
2023-03-29T10:15:52.303Z,8.03
2023-03-29T10:17:33.674Z,7.87
2023-03-29T10:19:14.961Z,7.08
2023-03-29T10:20:56.478Z,7.05
2023-03-29T10:22:38.012Z,6.98
2023-03-29T10:24:19.528Z,7.06
2023-03-29T10:26:00.890Z,6.76
2023-03-29T10:27:42.168Z,6.78
2023-03-29T10:29:23.492Z,7.20
2023-03-29T10:31:04.952Z,7.30
2023-03-29T10:32:46.493Z,8.08
2023-03-29T10:34:27.838Z,8.60
2023-03-29T10:36:09.200Z,8.49
2023-03-29T10:37:50.940Z,8.98
2023-03-29T10:39:32.566Z,9.37
2023-03-29T10:41:13.892Z,9.97
2023-03-29T10:42:55.177Z,10.12
2023-03-29T10:44:36.541Z,10.08
2023-03-29T10:46:17.979Z,9.75
2023-03-29T10:47:59.416Z,9.91
2023-03-29T10:49:40.849Z,8.56
2023-03-29T10:51:22.125Z,8.00
2023-03-29T10:53:03.453Z,8.29
2023-03-29T10:54:44.875Z,8.52
2023-03-29T10:56:26.177Z,8.97
2023-03-29T10:58:07.470Z,9.40
2023-03-29T10:59:48.802Z,9.84
2023-03-29T11:01:30.146Z,10.20
2023-03-29T11:03:13.110Z,10.49
2023-03-29T11:04:56.504Z,10.73
2023-03-29T11:06:37.810Z,11.03
2023-03-29T11:08:19.124Z,11.20
2023-03-29T11:10:00.424Z,11.40
2023-03-29T11:11:41.744Z,11.52
2023-03-29T11:13:23.032Z,10.72
2023-03-29T11:15:06.338Z,10.12
2023-03-29T11:16:47.941Z,8.96
2023-03-29T11:18:29.253Z,8.56
2023-03-29T11:20:10.528Z,8.19
2023-03-29T11:21:51.958Z,7.61
2023-03-29T11:23:33.234Z,7.56
2023-03-29T11:25:14.552Z,7.74
2023-03-29T11:26:55.913Z,7.95
2023-03-29T11:28:37.309Z,7.68
2023-03-29T11:30:18.612Z,6.93
2023-03-29T11:32:00.060Z,6.61
2023-03-29T11:33:41.460Z,6.49
2023-03-29T11:35:22.745Z,6.41
2023-03-29T11:37:04.048Z,6.37
2023-03-29T11:38:45.553Z,6.16
2023-03-29T11:40:26.918Z,6.33
2023-03-29T11:42:08.239Z,6.73
2023-03-29T11:43:49.592Z,7.19
2023-03-29T11:45:30.893Z,7.01
2023-03-29T11:47:12.175Z,7.13
2023-03-29T11:48:53.460Z,7.64
2023-03-29T11:50:36.629Z,7.94
2023-03-29T11:52:18.168Z,8.18
2023-03-29T11:53:59.462Z,8.48
2023-03-29T11:55:40.750Z,8.31
2023-03-29T11:57:22.118Z,7.80
2023-03-29T11:59:03.456Z,7.86
2023-03-29T12:00:44.864Z,7.72
2023-03-29T12:02:26.245Z,8.02
2023-03-29T12:04:07.605Z,8.32
2023-03-29T12:05:49.014Z,8.79
2023-03-29T12:07:30.307Z,8.35
2023-03-29T12:09:11.576Z,8.75
2023-03-29T12:10:52.891Z,9.07
2023-03-29T12:12:34.212Z,9.50
2023-03-29T12:14:15.486Z,9.74
2023-03-29T12:15:56.794Z,9.98
2023-03-29T12:17:38.155Z,9.76
2023-03-29T12:19:19.452Z,9.72
2023-03-29T12:21:00.810Z,9.90
2023-03-29T12:22:42.164Z,9.90
2023-03-29T12:24:23.446Z,10.15
2023-03-29T12:26:04.832Z,10.16
2023-03-29T12:27:46.148Z,10.35
2023-03-29T12:29:27.460Z,10.50
2023-03-29T12:31:08.765Z,10.69
2023-03-29T12:32:50.119Z,10.62
2023-03-29T12:34:31.413Z,10.69
2023-03-29T12:36:12.793Z,10.45
2023-03-29T12:37:54.160Z,9.94
2023-03-29T12:39:35.476Z,9.48
2023-03-29T12:41:16.833Z,9.71
2023-03-29T12:42:58.136Z,9.44
2023-03-29T12:44:39.414Z,9.63
2023-03-29T12:46:20.777Z,9.74
2023-03-29T12:48:02.170Z,9.96
2023-03-29T12:49:43.496Z,10.01
2023-03-29T12:51:24.770Z,10.20
2023-03-29T12:53:06.126Z,10.21
2023-03-29T12:54:47.423Z,10.07
2023-03-29T12:56:28.708Z,10.27
2023-03-29T12:58:10.019Z,10.23
2023-03-29T12:59:51.328Z,10.55
2023-03-29T13:01:32.828Z,10.41
2023-03-29T13:03:14.241Z,10.39
2023-03-29T13:04:55.866Z,10.64
2023-03-29T13:06:37.327Z,10.70
2023-03-29T13:08:18.591Z,10.83
2023-03-29T13:09:59.912Z,10.52
2023-03-29T13:11:41.226Z,10.30
2023-03-29T13:13:22.492Z,10.55
2023-03-29T13:15:04.086Z,10.12
2023-03-29T13:16:45.376Z,9.84
2023-03-29T13:18:26.646Z,9.79
2023-03-29T13:20:07.976Z,9.37
2023-03-29T13:21:49.253Z,9.78
2023-03-29T13:23:30.541Z,10.02
2023-03-29T13:25:11.869Z,10.09
2023-03-29T13:26:53.159Z,9.99
2023-03-29T13:28:34.708Z,10.10
2023-03-29T13:30:16.381Z,9.94
2023-03-29T13:31:57.690Z,10.06
2023-03-29T13:33:38.985Z,10.13
2023-03-29T13:35:20.287Z,9.85
2023-03-29T13:37:01.600Z,9.25
2023-03-29T13:38:42.874Z,9.62
2023-03-29T13:40:24.193Z,9.86
2023-03-29T13:42:05.577Z,9.89
2023-03-29T13:43:46.886Z,9.64
2023-03-29T13:45:28.183Z,9.72
2023-03-29T13:47:09.532Z,9.84
2023-03-29T13:48:50.887Z,9.87
2023-03-29T13:50:32.313Z,9.63
2023-03-29T13:52:13.577Z,9.41
2023-03-29T13:53:54.883Z,9.28
2023-03-29T13:55:38.204Z,8.78
2023-03-29T13:57:19.797Z,8.90
2023-03-29T13:59:01.140Z,9.07
2023-03-29T14:00:42.514Z,9.49
2023-03-29T14:02:23.934Z,9.88
2023-03-29T14:04:05.290Z,9.83
2023-03-29T14:05:46.571Z,9.34
2023-03-29T14:07:27.882Z,9.27
2023-03-29T14:09:09.168Z,8.99
2023-03-29T14:10:50.435Z,9.06
2023-03-29T14:12:31.736Z,9.43
2023-03-29T14:14:13.072Z,9.35
2023-03-29T14:15:54.373Z,9.21
2023-03-29T14:17:35.664Z,9.01
2023-03-29T14:19:17.101Z,8.28
2023-03-29T14:20:58.404Z,8.74
2023-03-29T14:22:39.721Z,7.71
2023-03-29T14:24:21.115Z,7.29
2023-03-29T14:26:02.522Z,6.80
2023-03-29T14:27:43.907Z,6.79
2023-03-29T14:29:25.672Z,6.45
2023-03-29T14:31:07.040Z,6.38
2023-03-29T14:32:48.383Z,6.37
2023-03-29T14:34:29.785Z,6.30
2023-03-29T14:36:11.196Z,5.81
2023-03-29T14:37:52.541Z,5.98
2023-03-29T14:39:33.796Z,5.85
2023-03-29T14:41:15.167Z,5.87
2023-03-29T14:42:56.464Z,6.08
2023-03-29T14:44:37.746Z,6.52
2023-03-29T14:46:19.124Z,6.81
2023-03-29T14:48:00.490Z,7.27
2023-03-29T14:49:41.760Z,7.55
2023-03-29T14:51:23.071Z,7.79
2023-03-29T14:53:04.368Z,8.28
2023-03-29T14:54:45.661Z,7.76
2023-03-29T14:56:26.951Z,8.12
2023-03-29T14:58:10.100Z,8.45
2023-03-29T14:59:52.394Z,8.34
2023-03-29T15:01:33.717Z,8.33
2023-03-29T15:03:15.187Z,7.93
2023-03-29T15:04:56.643Z,7.30
2023-03-29T15:06:37.938Z,7.37
2023-03-29T15:08:19.256Z,7.64
2023-03-29T15:10:00.664Z,7.46
2023-03-29T15:11:42.022Z,7.07
2023-03-29T15:13:23.330Z,6.58
2023-03-29T15:15:04.680Z,5.97
2023-03-29T15:16:45.960Z,6.39
2023-03-29T15:18:27.319Z,6.46
2023-03-29T15:20:08.701Z,6.14
2023-03-29T15:21:50.047Z,6.25
2023-03-29T15:23:31.328Z,6.57
2023-03-29T15:25:12.668Z,6.81
2023-03-29T15:26:53.965Z,6.72
2023-03-29T15:28:35.248Z,7.20
2023-03-29T15:30:16.623Z,6.83
2023-03-29T15:31:57.976Z,6.65
2023-03-29T15:33:39.393Z,6.74
2023-03-29T15:35:20.800Z,6.63
2023-03-29T15:37:02.111Z,6.57
2023-03-29T15:38:44.929Z,7.03
2023-03-29T15:40:26.594Z,7.30
2023-03-29T15:42:07.931Z,7.11
2023-03-29T15:43:49.239Z,6.76
2023-03-29T15:45:30.562Z,6.74
2023-03-29T15:47:11.858Z,7.32
2023-03-29T15:48:53.150Z,6.87
2023-03-29T15:50:34.468Z,6.91
2023-03-29T15:52:16.968Z,7.16
2023-03-29T15:53:58.221Z,7.08
2023-03-29T15:55:39.540Z,7.10
2023-03-29T15:57:20.964Z,6.80
2023-03-29T15:59:02.338Z,6.59
2023-03-29T16:00:43.724Z,6.87
2023-03-29T16:02:25.111Z,7.31
2023-03-29T16:04:06.442Z,7.21
2023-03-29T16:05:47.735Z,7.12
2023-03-29T16:07:29.015Z,7.43
2023-03-29T16:09:10.324Z,7.82
2023-03-29T16:10:51.657Z,8.16
2023-03-29T16:12:32.969Z,8.02
2023-03-29T16:14:14.280Z,7.48
2023-03-29T16:15:55.606Z,7.33
2023-03-29T16:17:36.931Z,7.44
2023-03-29T16:19:18.398Z,7.80
2023-03-29T16:20:59.709Z,8.11
2023-03-29T16:22:41.514Z,8.11
2023-03-29T16:24:22.775Z,8.21
2023-03-29T16:26:04.136Z,7.83
2023-03-29T16:27:45.891Z,7.90
2023-03-29T16:29:27.514Z,7.82
2023-03-29T16:31:08.889Z,7.33
2023-03-29T16:32:50.314Z,6.65
2023-03-29T16:34:31.752Z,6.70
2023-03-29T16:36:13.118Z,7.30
2023-03-29T16:37:54.462Z,7.40
2023-03-29T16:39:35.784Z,7.26
2023-03-29T16:41:17.085Z,7.29
2023-03-29T16:42:58.399Z,7.20
2023-03-29T16:44:39.683Z,6.68
2023-03-29T16:48:02.288Z,6.09
2023-03-29T16:49:45.776Z,6.25
2023-03-29T16:51:27.228Z,6.35
2023-03-29T16:53:08.526Z,6.28
2023-03-29T16:54:49.864Z,6.81
2023-03-29T16:56:31.198Z,6.94
2023-03-29T16:58:12.540Z,7.23
2023-03-29T16:59:53.795Z,7.60
2023-03-29T17:01:35.175Z,7.78
2023-03-29T17:03:16.573Z,7.23
2023-03-29T17:04:57.878Z,7.21
2023-03-29T17:06:39.183Z,7.68
2023-03-29T17:08:20.514Z,7.92
2023-03-29T17:10:01.793Z,7.51
2023-03-29T17:11:43.156Z,6.67
2023-03-29T17:13:24.519Z,7.02
2023-03-29T17:15:05.819Z,7.27
2023-03-29T17:16:47.235Z,7.24
2023-03-29T17:18:28.560Z,6.45
2023-03-29T17:20:09.914Z,6.24
2023-03-29T17:21:51.219Z,6.81
2023-03-29T17:23:32.533Z,6.37
2023-03-29T17:25:13.850Z,6.09
2023-03-29T17:26:55.162Z,6.05
2023-03-29T17:28:36.459Z,6.06
2023-03-29T17:30:17.748Z,6.26
2023-03-29T17:31:59.084Z,6.41
2023-03-29T17:33:40.366Z,6.46
2023-03-29T17:35:21.665Z,6.60
2023-03-29T17:37:03.005Z,6.17
2023-03-29T17:38:44.313Z,6.40
2023-03-29T17:40:25.615Z,6.61
2023-03-29T17:42:06.985Z,6.37
2023-03-29T17:43:48.312Z,6.32
2023-03-29T17:45:29.612Z,6.71
2023-03-29T17:47:10.912Z,6.84
2023-03-29T17:48:52.222Z,6.30
2023-03-29T17:50:33.531Z,6.14
2023-03-29T17:52:14.817Z,5.96
2023-03-29T17:53:56.094Z,5.75
2023-03-29T17:55:37.493Z,5.84
2023-03-29T17:57:19.482Z,6.19
2023-03-29T17:59:00.968Z,6.70
2023-03-29T18:00:42.358Z,6.43
2023-03-29T18:02:23.774Z,6.34
2023-03-29T18:04:05.144Z,6.75
2023-03-29T18:05:46.483Z,6.95
2023-03-29T18:07:27.805Z,6.62
2023-03-29T18:09:09.094Z,6.06
2023-03-29T18:10:50.393Z,6.34
2023-03-29T18:12:32.635Z,6.75
2023-03-29T18:14:14.061Z,7.09
2023-03-29T18:15:55.424Z,6.38
2023-03-29T18:17:36.769Z,5.73
2023-03-29T18:19:18.521Z,6.00
2023-03-29T18:20:59.987Z,6.41
2023-03-29T18:22:41.337Z,6.74
2023-03-29T18:24:22.671Z,7.12
2023-03-29T18:26:04.168Z,7.18
2023-03-29T18:27:45.676Z,7.30
2023-03-29T18:29:26.975Z,7.46
2023-03-29T18:31:08.292Z,7.51
2023-03-29T18:32:49.649Z,7.06
2023-03-29T18:34:30.963Z,6.43
2023-03-29T18:36:13.567Z,6.44
2023-03-29T18:37:55.136Z,6.66
2023-03-29T18:39:36.421Z,6.64
2023-03-29T18:41:17.742Z,6.93
2023-03-29T18:42:59.148Z,6.55
2023-03-29T18:44:40.522Z,6.26
2023-03-29T18:46:21.867Z,5.95
2023-03-29T18:48:03.169Z,5.65
2023-03-29T18:49:44.523Z,5.67
2023-03-29T18:51:25.845Z,5.58
2023-03-29T18:53:07.127Z,6.03
2023-03-29T18:54:48.438Z,6.39
2023-03-29T18:56:29.738Z,6.27
2023-03-29T18:58:11.010Z,5.62
2023-03-29T18:59:52.323Z,5.64
2023-03-29T19:01:33.646Z,6.27
2023-03-29T19:03:15.031Z,6.74
2023-03-29T19:04:56.606Z,6.58
2023-03-29T19:06:37.881Z,6.17
2023-03-29T19:08:19.170Z,5.58
2023-03-29T19:10:00.560Z,5.67
2023-03-29T19:11:41.881Z,6.00
2023-03-29T19:13:23.187Z,6.08
2023-03-29T19:15:04.512Z,6.34
2023-03-29T19:16:46.100Z,6.55
2023-03-29T19:18:27.688Z,6.71
2023-03-29T19:20:09.006Z,5.97
2023-03-29T19:21:50.296Z,5.79
2023-03-29T19:23:31.577Z,5.97
2023-03-29T19:25:12.870Z,6.30
2023-03-29T19:26:54.140Z,6.04
2023-03-29T19:28:35.464Z,6.55
2023-03-29T19:30:16.754Z,6.65
2023-03-29T19:31:58.117Z,6.75
2023-03-29T19:33:39.397Z,6.84
2023-03-29T19:35:20.732Z,6.71
2023-03-29T19:37:02.105Z,7.14
2023-03-29T19:38:45.790Z,7.35
2023-03-29T19:40:27.086Z,7.22
2023-03-29T19:42:08.427Z,7.00
2023-03-29T19:43:49.708Z,6.97
2023-03-29T19:45:30.979Z,6.75
2023-03-29T19:47:12.284Z,6.31
2023-03-29T19:48:53.643Z,6.49
2023-03-29T19:50:34.946Z,6.73
2023-03-29T19:52:16.280Z,7.10
2023-03-29T19:53:57.637Z,7.13
2023-03-29T19:55:39.052Z,7.13
2023-03-29T19:57:20.361Z,6.41
2023-03-29T19:59:01.733Z,5.47
2023-03-29T20:00:43.076Z,5.27
2023-03-29T20:02:24.381Z,5.75
2023-03-29T20:04:05.712Z,5.83
2023-03-29T20:05:47.037Z,5.70
2023-03-29T20:07:28.345Z,5.60
2023-03-29T20:09:09.629Z,6.04
2023-03-29T20:10:50.960Z,6.29
2023-03-29T20:12:32.259Z,6.69
2023-03-29T20:14:13.596Z,6.55
2023-03-29T20:15:54.932Z,6.09
2023-03-29T20:17:36.253Z,6.36
2023-03-29T20:19:17.773Z,6.71
2023-03-29T20:20:59.151Z,6.95
2023-03-29T20:22:40.490Z,7.01
2023-03-29T20:24:21.762Z,7.26
2023-03-29T20:26:03.065Z,7.30
2023-03-29T20:27:44.365Z,7.43
2023-03-29T20:29:25.638Z,6.77
2023-03-29T20:31:06.922Z,6.29
2023-03-29T20:32:48.244Z,6.71
2023-03-29T20:34:29.612Z,7.10
2023-03-29T20:36:10.944Z,7.18
2023-03-29T20:37:52.288Z,7.12
2023-03-29T20:39:33.563Z,6.73
2023-03-29T20:41:14.830Z,6.78
2023-03-29T20:42:56.146Z,6.78
2023-03-29T20:44:37.477Z,6.05
2023-03-29T20:46:18.811Z,6.03
2023-03-29T20:48:00.235Z,5.76
2023-03-29T20:49:41.581Z,5.90
2023-03-29T20:51:22.891Z,5.93
2023-03-29T20:53:04.199Z,6.04
2023-03-29T20:54:45.549Z,6.32
2023-03-29T20:56:26.913Z,5.81
2023-03-29T20:58:08.197Z,5.43
2023-03-29T20:59:49.587Z,5.54
2023-03-29T21:01:30.917Z,5.37
2023-03-29T21:03:12.333Z,5.21
2023-03-29T21:04:53.770Z,5.45
2023-03-29T21:06:35.103Z,5.65
2023-03-29T21:08:16.398Z,5.85
2023-03-29T21:09:57.717Z,6.37
2023-03-29T21:11:39.023Z,6.75
2023-03-29T21:13:20.332Z,7.07
2023-03-29T21:15:01.662Z,7.29
2023-03-29T21:16:42.933Z,7.53
2023-03-29T21:18:24.233Z,7.38
2023-03-29T21:20:05.546Z,7.02
2023-03-29T21:21:46.810Z,5.84
2023-03-29T21:23:28.125Z,5.62
2023-03-29T21:25:09.538Z,5.64
2023-03-29T21:26:50.823Z,5.85
2023-03-29T21:28:32.119Z,6.22
2023-03-29T21:30:13.439Z,6.44
2023-03-29T21:31:55.050Z,6.79
2023-03-29T21:33:36.503Z,6.43
2023-03-29T21:35:17.841Z,5.79
2023-03-29T21:36:59.109Z,5.38
2023-03-29T21:38:40.455Z,5.38
2023-03-29T21:40:21.819Z,5.46
2023-03-29T21:42:03.088Z,5.72
2023-03-29T21:43:44.346Z,6.04
2023-03-29T21:45:25.648Z,6.31
2023-03-29T21:47:06.915Z,6.73
2023-03-29T21:48:48.219Z,6.99
2023-03-29T21:50:30.806Z,7.18
2023-03-29T21:52:13.232Z,6.75
2023-03-29T21:53:54.587Z,6.61
2023-03-29T21:55:35.857Z,6.85
2023-03-29T21:57:17.201Z,7.27
2023-03-29T21:58:58.591Z,7.32
2023-03-29T22:00:39.913Z,7.32
2023-03-29T22:02:21.408Z,7.44
2023-03-29T22:04:02.758Z,7.76
2023-03-29T22:05:44.080Z,7.83
2023-03-29T22:07:25.384Z,7.48
2023-03-29T22:09:06.699Z,6.50
2023-03-29T22:10:48.007Z,5.90
2023-03-29T22:12:29.294Z,5.80
2023-03-29T22:14:10.605Z,6.13
2023-03-29T22:15:51.980Z,6.40
2023-03-29T22:17:33.320Z,6.68
2023-03-29T22:19:14.627Z,6.79
2023-03-29T22:20:55.920Z,6.65
2023-03-29T22:22:37.202Z,6.42
2023-03-29T22:24:18.530Z,5.93
2023-03-29T22:25:59.793Z,6.35
2023-03-29T22:27:41.137Z,6.79
2023-03-29T22:29:22.445Z,6.81